Superfast Xi — SYCF — position and weather

sailwx.info

Track history (hours):
 
Tides and Currents Weather Stations Pressure Air Temp Water Temp Dewpoint Dewpoint Depression Visibility Wind Speed Wind Dir Waves Ship Positions

Superfast Xi

Last reported at 2014-Mar-17 07:26 UTC. Time now 2014-Jul-23 08:04 UTC.
Position N 39°20' E 020°13'.
Warning: this ship's position is months out of date.

Length 200 m; draft 6.3 m.

Type: Passenger vessel. MMSI: 239918000.

Date/timePositionNaut miles runAvg speedWind from/ knotsBaromVisibWave heightAir tempDewpointWater temp
2014-Mar-17 07:26N 39°20' E 020°13'1011.1
2014-Mar-17 06:33N 39°30' E 020°15'1312.7
2014-Mar-17 05:34N 39°37' E 020°02'2320.9
2014-Mar-17 04:26N 39°56' E 019°45'  
2014-Mar-14 23:15N 39°41' E 019°58'1521.6
2014-Mar-14 22:33N 39°30' E 020°11'3 3.4
2014-Mar-14 21:34N 39°30' E 020°15'8 7.8
2014-Mar-14 20:33N 39°22' E 020°12'7 0.5
2014-Mar-14 08:07N 39°16' E 020°15'1323.1
2014-Mar-14 07:33N 39°29' E 020°11'4 3.6
2014-Mar-14 06:34N 39°30' E 020°15'1615.5
2014-Mar-14 05:34N 39°39' E 019°59'  
2014-Mar-12 00:31N 39°56' E 019°45'2122.2
2014-Mar-11 23:34N 39°39' E 020°00'1515.0
2014-Mar-11 22:33N 39°30' E 020°15'5 5.2
2014-Mar-11 21:33N 39°26' E 020°11'  
2014-Mar-09 07:34N 39°28' E 020°11'4 3.7
2014-Mar-09 06:34N 39°30' E 020°15'1717.4
2014-Mar-09 05:33N 39°41' E 019°58'  
Track history (hours):
 
Tides and Currents Weather Stations Pressure Air Temp Water Temp Dewpoint Dewpoint Depression Visibility Wind Speed Wind Dir Waves Ship Positions

Superfast Xi

Last reported at 2014-Mar-17 07:26 UTC. Time now 2014-Jul-23 08:04 UTC.
Position N 39°20' E 020°13'.
Warning: this ship's position is months out of date.

Length 200 m; draft 6.3 m.

Type: Passenger vessel. MMSI: 239918000.

Date/timePositionNaut miles runAvg speedWind from/ knotsBaromVisibWave heightAir tempDewpointWater temp
2014-Mar-17 07:26N 39°20' E 020°13'1011.1
2014-Mar-17 06:33N 39°30' E 020°15'1312.7
2014-Mar-17 05:34N 39°37' E 020°02'2320.9
2014-Mar-17 04:26N 39°56' E 019°45'  
2014-Mar-14 23:15N 39°41' E 019°58'1521.6
2014-Mar-14 22:33N 39°30' E 020°11'3 3.4
2014-Mar-14 21:34N 39°30' E 020°15'8 7.8
2014-Mar-14 20:33N 39°22' E 020°12'7 0.5
2014-Mar-14 08:07N 39°16' E 020°15'1323.1
2014-Mar-14 07:33N 39°29' E 020°11'4 3.6
2014-Mar-14 06:34N 39°30' E 020°15'1615.5
2014-Mar-14 05:34N 39°39' E 019°59'  
2014-Mar-12 00:31N 39°56' E 019°45'2122.2
2014-Mar-11 23:34N 39°39' E 020°00'1515.0
2014-Mar-11 22:33N 39°30' E 020°15'5 5.2
2014-Mar-11 21:33N 39°26' E 020°11'  
2014-Mar-09 07:34N 39°28' E 020°11'4 3.7
2014-Mar-09 06:34N 39°30' E 020°15'1717.4
2014-Mar-09 05:33N 39°41' E 019°58'  

Dump ship's entire track history